sensor_id;sensor_type;location;lat;lon;timestamp;temperature;humidity
7564;DHT22;3823;53.586;10.040;2023-04-25T04:00:24;7.80;1.00
7564;DHT22;3823;53.586;10.040;2023-04-25T04:02:49;7.90;1.00
7564;DHT22;3823;53.586;10.040;2023-04-25T04:05:15;7.80;1.00
7564;DHT22;3823;53.586;10.040;2023-04-25T04:07:41;7.80;1.00
7564;DHT22;3823;53.586;10.040;2023-04-25T04:10:11;7.80;1.00
7564;DHT22;3823;53.586;10.040;2023-04-25T04:12:37;7.70;1.00
7564;DHT22;3823;53.586;10.040;2023-04-25T04:15:04;7.80;1.00
7564;DHT22;3823;53.586;10.040;2023-04-25T04:17:31;7.80;1.00
7564;DHT22;3823;53.586;10.040;2023-04-25T04:19:57;7.80;1.00
7564;DHT22;3823;53.586;10.040;2023-04-25T04:22:23;7.80;1.00
7564;DHT22;3823;53.586;10.040;2023-04-25T04:24:49;7.70;1.00
7564;DHT22;3823;53.586;10.040;2023-04-25T04:27:16;7.70;1.00
7564;DHT22;3823;53.586;10.040;2023-04-25T04:29:43;7.80;1.00
7564;DHT22;3823;53.586;10.040;2023-04-25T04:32:09;7.70;1.00
7564;DHT22;3823;53.586;10.040;2023-04-25T04:34:35;7.80;1.00
7564;DHT22;3823;53.586;10.040;2023-04-25T04:37:01;7.70;1.00
7564;DHT22;3823;53.586;10.040;2023-04-25T04:39:26;7.70;1.00
7564;DHT22;3823;53.586;10.040;2023-04-25T04:41:52;7.70;1.00
7564;DHT22;3823;53.586;10.040;2023-04-25T04:44:18;7.70;1.00
7564;DHT22;3823;53.586;10.040;2023-04-25T04:46:44;7.80;1.00
7564;DHT22;3823;53.586;10.040;2023-04-25T04:49:10;7.90;1.00
7564;DHT22;3823;53.586;10.040;2023-04-25T04:51:36;7.80;1.00
7564;DHT22;3823;53.586;10.040;2023-04-25T04:54:02;7.90;1.00
7564;DHT22;3823;53.586;10.040;2023-04-25T04:56:29;7.80;1.00
7564;DHT22;3823;53.586;10.040;2023-04-25T04:58:56;7.90;1.00
7564;DHT22;3823;53.586;10.040;2023-04-25T05:01:22;7.80;1.00
7564;DHT22;3823;53.586;10.040;2023-04-25T05:03:47;7.70;1.00
7564;DHT22;3823;53.586;10.040;2023-04-25T05:06:13;7.80;1.00
7564;DHT22;3823;53.586;10.040;2023-04-25T05:08:39;7.80;1.00
7564;DHT22;3823;53.586;10.040;2023-04-25T05:11:05;7.80;1.00
7564;DHT22;3823;53.586;10.040;2023-04-25T05:13:30;7.80;1.00
7564;DHT22;3823;53.586;10.040;2023-04-25T05:15:56;7.80;1.00
7564;DHT22;3823;53.586;10.040;2023-04-25T05:18:21;7.80;1.00
7564;DHT22;3823;53.586;10.040;2023-04-25T05:20:47;7.80;1.00
7564;DHT22;3823;53.586;10.040;2023-04-25T05:23:12;7.80;1.00
7564;DHT22;3823;53.586;10.040;2023-04-25T05:25:38;7.90;1.00
7564;DHT22;3823;53.586;10.040;2023-04-25T05:28:04;7.70;1.00
7564;DHT22;3823;53.586;10.040;2023-04-25T05:30:30;7.70;1.00
7564;DHT22;3823;53.586;10.040;2023-04-25T05:32:55;7.70;1.00
7564;DHT22;3823;53.586;10.040;2023-04-25T05:35:21;7.60;1.00
7564;DHT22;3823;53.586;10.040;2023-04-25T05:37:46;7.70;1.00
7564;DHT22;3823;53.586;10.040;2023-04-25T05:40:12;7.70;1.00
7564;DHT22;3823;53.586;10.040;2023-04-25T05:42:38;7.70;1.00
7564;DHT22;3823;53.586;10.040;2023-04-25T05:45:04;7.60;1.00
7564;DHT22;3823;53.586;10.040;2023-04-25T05:47:29;7.60;1.00
7564;DHT22;3823;53.586;10.040;2023-04-25T05:49:55;7.70;1.00
7564;DHT22;3823;53.586;10.040;2023-04-25T05:52:20;7.70;1.00
7564;DHT22;3823;53.586;10.040;2023-04-25T05:54:46;7.70;1.00
7564;DHT22;3823;53.586;10.040;2023-04-25T05:57:23;7.80;1.00
7564;DHT22;3823;53.586;10.040;2023-04-25T05:59:49;7.90;1.00
7564;DHT22;3823;53.586;10.040;2023-04-25T06:02:15;7.90;1.00
7564;DHT22;3823;53.586;10.040;2023-04-25T06:04:40;7.80;1.00
7564;DHT22;3823;53.586;10.040;2023-04-25T06:07:06;7.90;1.00
7564;DHT22;3823;53.586;10.040;2023-04-25T06:09:31;8.00;1.00
7564;DHT22;3823;53.586;10.040;2023-04-25T06:11:57;8.00;1.00
7564;DHT22;3823;53.586;10.040;2023-04-25T06:14:22;8.00;1.00
7564;DHT22;3823;53.586;10.040;2023-04-25T06:16:48;8.00;1.00
7564;DHT22;3823;53.586;10.040;2023-04-25T06:19:13;8.00;1.00
7564;DHT22;3823;53.586;10.040;2023-04-25T06:21:39;8.10;1.00
7564;DHT22;3823;53.586;10.040;2023-04-25T06:24:05;8.10;1.00
7564;DHT22;3823;53.586;10.040;2023-04-25T06:26:30;8.10;1.00
7564;DHT22;3823;53.586;10.040;2023-04-25T06:28:56;8.10;1.00
7564;DHT22;3823;53.586;10.040;2023-04-25T06:31:21;8.10;1.00
7564;DHT22;3823;53.586;10.040;2023-04-25T06:33:47;8.10;1.00
7564;DHT22;3823;53.586;10.040;2023-04-25T06:36:13;8.10;1.00
7564;DHT22;3823;53.586;10.040;2023-04-25T06:38:39;8.10;1.00
7564;DHT22;3823;53.586;10.040;2023-04-25T06:41:04;8.00;1.00
7564;DHT22;3823;53.586;10.040;2023-04-25T06:43:30;8.10;1.00
7564;DHT22;3823;53.586;10.040;2023-04-25T06:45:59;8.10;1.00
7564;DHT22;3823;53.586;10.040;2023-04-25T06:48:25;8.10;1.00
7564;DHT22;3823;53.586;10.040;2023-04-25T06:50:51;8.10;1.00
7564;DHT22;3823;53.586;10.040;2023-04-25T06:53:16;8.10;1.00
7564;DHT22;3823;53.586;10.040;2023-04-25T06:55:42;8.10;1.00
7564;DHT22;3823;53.586;10.040;2023-04-25T06:58:07;8.10;1.00
7564;DHT22;3823;53.586;10.040;2023-04-25T07:00:33;8.20;1.00
7564;DHT22;3823;53.586;10.040;2023-04-25T07:02:58;8.20;1.00
7564;DHT22;3823;53.586;10.040;2023-04-25T07:05:24;8.30;1.00
7564;DHT22;3823;53.586;10.040;2023-04-25T07:07:49;8.30;1.00
7564;DHT22;3823;53.586;10.040;2023-04-25T07:10:15;8.40;1.00
7564;DHT22;3823;53.586;10.040;2023-04-25T07:12:41;8.40;1.00
7564;DHT22;3823;53.586;10.040;2023-04-25T07:15:07;8.40;1.00
7564;DHT22;3823;53.586;10.040;2023-04-25T07:17:35;8.40;1.00
7564;DHT22;3823;53.586;10.040;2023-04-25T07:20:00;8.40;1.00
7564;DHT22;3823;53.586;10.040;2023-04-25T07:22:26;8.50;1.00
7564;DHT22;3823;53.586;10.040;2023-04-25T07:24:51;8.50;1.00
7564;DHT22;3823;53.586;10.040;2023-04-25T07:27:18;8.60;1.00
7564;DHT22;3823;53.586;10.040;2023-04-25T07:29:44;8.60;1.00
7564;DHT22;3823;53.586;10.040;2023-04-25T07:32:09;8.50;1.00
7564;DHT22;3823;53.586;10.040;2023-04-25T07:34:37;8.40;1.00
7564;DHT22;3823;53.586;10.040;2023-04-25T07:37:04;8.40;1.00
7564;DHT22;3823;53.586;10.040;2023-04-25T07:39:30;8.40;1.00
7564;DHT22;3823;53.586;10.040;2023-04-25T07:41:56;8.40;1.00
7564;DHT22;3823;53.586;10.040;2023-04-25T07:44:24;8.40;1.00
7564;DHT22;3823;53.586;10.040;2023-04-25T07:46:49;8.40;1.00
7564;DHT22;3823;53.586;10.040;2023-04-25T07:49:15;8.40;1.00
7564;DHT22;3823;53.586;10.040;2023-04-25T07:51:40;8.50;1.00
7564;DHT22;3823;53.586;10.040;2023-04-25T07:54:09;8.50;1.00
7564;DHT22;3823;53.586;10.040;2023-04-25T07:56:34;8.50;1.00
7564;DHT22;3823;53.586;10.040;2023-04-25T07:59:00;8.60;1.00
7564;DHT22;3823;53.586;10.040;2023-04-25T08:01:26;8.70;1.00
7564;DHT22;3823;53.586;10.040;2023-04-25T08:03:52;9.00;1.00
7564;DHT22;3823;53.586;10.040;2023-04-25T08:06:18;9.20;1.00
7564;DHT22;3823;53.586;10.040;2023-04-25T08:08:43;9.30;1.00
7564;DHT22;3823;53.586;10.040;2023-04-25T08:11:09;9.30;1.00
7564;DHT22;3823;53.586;10.040;2023-04-25T08:13:35;9.40;1.00
7564;DHT22;3823;53.586;10.040;2023-04-25T08:16:01;9.40;1.00
7564;DHT22;3823;53.586;10.040;2023-04-25T08:18:26;9.40;1.00
7564;DHT22;3823;53.586;10.040;2023-04-25T08:20:52;9.30;1.00
7564;DHT22;3823;53.586;10.040;2023-04-25T08:23:17;9.40;1.00
7564;DHT22;3823;53.586;10.040;2023-04-25T08:25:43;9.40;1.00
7564;DHT22;3823;53.586;10.040;2023-04-25T08:28:09;9.40;1.00
7564;DHT22;3823;53.586;10.040;2023-04-25T08:30:34;9.40;1.00
7564;DHT22;3823;53.586;10.040;2023-04-25T08:33:00;9.20;1.00
7564;DHT22;3823;53.586;10.040;2023-04-25T08:35:25;9.30;1.00
7564;DHT22;3823;53.586;10.040;2023-04-25T08:37:51;9.30;1.00
7564;DHT22;3823;53.586;10.040;2023-04-25T08:40:17;9.30;1.00
7564;DHT22;3823;53.586;10.040;2023-04-25T08:42:42;9.30;1.00
7564;DHT22;3823;53.586;10.040;2023-04-25T08:45:09;9.40;1.00
7564;DHT22;3823;53.586;10.040;2023-04-25T08:47:38;9.40;1.00
7564;DHT22;3823;53.586;10.040;2023-04-25T08:50:04;9.40;1.00
7564;DHT22;3823;53.586;10.040;2023-04-25T08:52:36;9.30;1.00
7564;DHT22;3823;53.586;10.040;2023-04-25T08:55:03;9.20;1.00
7564;DHT22;3823;53.586;10.040;2023-04-25T08:57:31;9.20;1.00
7564;DHT22;3823;53.586;10.040;2023-04-25T08:59:57;9.40;1.00
7564;DHT22;3823;53.586;10.040;2023-04-25T09:02:24;9.50;1.00
7564;DHT22;3823;53.586;10.040;2023-04-25T09:04:50;9.70;1.00
7564;DHT22;3823;53.586;10.040;2023-04-25T09:07:16;9.70;1.00
7564;DHT22;3823;53.586;10.040;2023-04-25T09:09:44;10.00;1.00
7564;DHT22;3823;53.586;10.040;2023-04-25T09:12:10;10.10;1.00
7564;DHT22;3823;53.586;10.040;2023-04-25T09:14:35;10.20;1.00
7564;DHT22;3823;53.586;10.040;2023-04-25T09:17:02;10.00;1.00
7564;DHT22;3823;53.586;10.040;2023-04-25T09:19:31;9.70;1.00
7564;DHT22;3823;53.586;10.040;2023-04-25T09:21:59;9.40;1.00
7564;DHT22;3823;53.586;10.040;2023-04-25T09:24:43;9.40;1.00
7564;DHT22;3823;53.586;10.040;2023-04-25T09:27:13;9.30;1.00
7564;DHT22;3823;53.586;10.040;2023-04-25T09:29:43;9.30;1.00
7564;DHT22;3823;53.586;10.040;2023-04-25T09:34:48;9.50;1.00
7564;DHT22;3823;53.586;10.040;2023-04-25T09:39:48;9.80;1.00
7564;DHT22;3823;53.586;10.040;2023-04-25T09:42:15;10.00;1.00
7564;DHT22;3823;53.586;10.040;2023-04-25T09:44:45;10.00;1.00
7564;DHT22;3823;53.586;10.040;2023-04-25T09:47:15;9.80;1.00
7564;DHT22;3823;53.586;10.040;2023-04-25T09:49:43;9.30;1.00
7564;DHT22;3823;53.586;10.040;2023-04-25T09:52:13;9.00;1.00
7564;DHT22;3823;53.586;10.040;2023-04-25T09:54:38;8.70;1.00
7564;DHT22;3823;53.586;10.040;2023-04-25T09:57:13;8.70;1.00
7564;DHT22;3823;53.586;10.040;2023-04-25T09:59:42;8.80;1.00
7564;DHT22;3823;53.586;10.040;2023-04-25T10:02:09;9.00;1.00
7564;DHT22;3823;53.586;10.040;2023-04-25T10:04:37;9.30;99.90
7564;DHT22;3823;53.586;10.040;2023-04-25T10:07:05;9.60;1.00
7564;DHT22;3823;53.586;10.040;2023-04-25T10:09:32;9.80;1.00
7564;DHT22;3823;53.586;10.040;2023-04-25T10:12:01;10.00;1.00
7564;DHT22;3823;53.586;10.040;2023-04-25T10:14:30;10.10;1.00
7564;DHT22;3823;53.586;10.040;2023-04-25T10:16:57;10.20;1.00
7564;DHT22;3823;53.586;10.040;2023-04-25T10:19:24;10.40;1.00
7564;DHT22;3823;53.586;10.040;2023-04-25T10:21:53;10.70;1.00
7564;DHT22;3823;53.586;10.040;2023-04-25T10:24:20;10.90;1.00
7564;DHT22;3823;53.586;10.040;2023-04-25T10:26:47;10.90;1.00
7564;DHT22;3823;53.586;10.040;2023-04-25T10:29:21;10.80;1.00
7564;DHT22;3823;53.586;10.040;2023-04-25T10:31:48;10.70;1.00
7564;DHT22;3823;53.586;10.040;2023-04-25T10:34:13;10.60;1.00
7564;DHT22;3823;53.586;10.040;2023-04-25T10:36:39;10.60;1.00
7564;DHT22;3823;53.586;10.040;2023-04-25T10:39:06;10.90;1.00
7564;DHT22;3823;53.586;10.040;2023-04-25T10:42:02;11.20;1.00
7564;DHT22;3823;53.586;10.040;2023-04-25T10:44:31;11.50;1.00
7564;DHT22;3823;53.586;10.040;2023-04-25T10:46:59;11.50;1.00
7564;DHT22;3823;53.586;10.040;2023-04-25T10:49:34;11.50;1.00
7564;DHT22;3823;53.586;10.040;2023-04-25T10:54:48;11.50;1.00
7564;DHT22;3823;53.586;10.040;2023-04-25T10:57:41;11.60;1.00
7564;DHT22;3823;53.586;10.040;2023-04-25T11:02:53;11.90;1.00
7564;DHT22;3823;53.586;10.040;2023-04-25T11:07:53;11.50;1.00
7564;DHT22;3823;53.586;10.040;2023-04-25T11:10:25;11.30;1.00
7564;DHT22;3823;53.586;10.040;2023-04-25T11:12:51;11.20;1.00
7564;DHT22;3823;53.586;10.040;2023-04-25T11:15:16;11.10;1.00
7564;DHT22;3823;53.586;10.040;2023-04-25T11:17:42;11.00;1.00
7564;DHT22;3823;53.586;10.040;2023-04-25T11:20:10;11.00;1.00
7564;DHT22;3823;53.586;10.040;2023-04-25T11:22:38;10.90;1.00
7564;DHT22;3823;53.586;10.040;2023-04-25T11:25:07;10.90;1.00
7564;DHT22;3823;53.586;10.040;2023-04-25T11:27:33;10.70;1.00
7564;DHT22;3823;53.586;10.040;2023-04-25T11:30:10;10.70;1.00
7564;DHT22;3823;53.586;10.040;2023-04-25T11:32:35;10.60;1.00
7564;DHT22;3823;53.586;10.040;2023-04-25T11:35:01;10.50;1.00
7564;DHT22;3823;53.586;10.040;2023-04-25T11:37:26;10.50;1.00
7564;DHT22;3823;53.586;10.040;2023-04-25T11:39:53;10.50;1.00
7564;DHT22;3823;53.586;10.040;2023-04-25T11:42:19;10.30;1.00
7564;DHT22;3823;53.586;10.040;2023-04-25T11:44:45;10.20;1.00
7564;DHT22;3823;53.586;10.040;2023-04-25T11:47:10;10.10;1.00
7564;DHT22;3823;53.586;10.040;2023-04-25T11:49:36;10.10;1.00
7564;DHT22;3823;53.586;10.040;2023-04-25T11:52:02;10.20;1.00
7564;DHT22;3823;53.586;10.040;2023-04-25T11:54:27;10.20;1.00
7564;DHT22;3823;53.586;10.040;2023-04-25T11:56:53;10.40;1.00
7564;DHT22;3823;53.586;10.040;2023-04-25T11:59:23;10.80;1.00
7564;DHT22;3823;53.586;10.040;2023-04-25T12:01:50;11.10;1.00
7564;DHT22;3823;53.586;10.040;2023-04-25T12:04:20;11.30;1.00
7564;DHT22;3823;53.586;10.040;2023-04-25T12:06:48;11.40;1.00
7564;DHT22;3823;53.586;10.040;2023-04-25T12:09:15;11.40;1.00
7564;DHT22;3823;53.586;10.040;2023-04-25T12:11:46;11.40;1.00
7564;DHT22;3823;53.586;10.040;2023-04-25T12:16:49;11.60;1.00
7564;DHT22;3823;53.586;10.040;2023-04-25T12:19:17;11.50;1.00
7564;DHT22;3823;53.586;10.040;2023-04-25T12:21:44;11.60;1.00
7564;DHT22;3823;53.586;10.040;2023-04-25T12:24:12;11.70;1.00
7564;DHT22;3823;53.586;10.040;2023-04-25T12:27:01;11.80;1.00
7564;DHT22;3823;53.586;10.040;2023-04-25T12:29:29;11.70;1.00
7564;DHT22;3823;53.586;10.040;2023-04-25T12:31:55;11.60;1.00
7564;DHT22;3823;53.586;10.040;2023-04-25T12:34:22;11.60;1.00
7564;DHT22;3823;53.586;10.040;2023-04-25T12:36:49;11.70;1.00
7564;DHT22;3823;53.586;10.040;2023-04-25T12:39:22;11.80;1.00
7564;DHT22;3823;53.586;10.040;2023-04-25T12:41:49;11.90;1.00
7564;DHT22;3823;53.586;10.040;2023-04-25T12:44:16;12.00;1.00
7564;DHT22;3823;53.586;10.040;2023-04-25T12:46:42;12.20;1.00
7564;DHT22;3823;53.586;10.040;2023-04-25T12:49:08;12.30;1.00
7564;DHT22;3823;53.586;10.040;2023-04-25T12:51:35;12.40;1.00
7564;DHT22;3823;53.586;10.040;2023-04-25T12:54:01;12.40;1.00
7564;DHT22;3823;53.586;10.040;2023-04-25T12:56:28;12.20;1.00
7564;DHT22;3823;53.586;10.040;2023-04-25T12:58:54;11.90;1.00
7564;DHT22;3823;53.586;10.040;2023-04-25T13:01:20;11.70;1.00
7564;DHT22;3823;53.586;10.040;2023-04-25T13:03:46;11.40;1.00
7564;DHT22;3823;53.586;10.040;2023-04-25T13:06:12;11.30;1.00
7564;DHT22;3823;53.586;10.040;2023-04-25T13:08:38;11.40;1.00
7564;DHT22;3823;53.586;10.040;2023-04-25T13:11:05;11.70;1.00
7564;DHT22;3823;53.586;10.040;2023-04-25T13:13:30;11.90;1.00
7564;DHT22;3823;53.586;10.040;2023-04-25T13:15:57;12.00;1.00
7564;DHT22;3823;53.586;10.040;2023-04-25T13:18:22;12.00;1.00
7564;DHT22;3823;53.586;10.040;2023-04-25T13:20:52;11.90;1.00
7564;DHT22;3823;53.586;10.040;2023-04-25T13:23:18;11.60;1.00
7564;DHT22;3823;53.586;10.040;2023-04-25T13:25:44;11.20;1.00
7564;DHT22;3823;53.586;10.040;2023-04-25T13:28:10;10.80;1.00
7564;DHT22;3823;53.586;10.040;2023-04-25T13:30:36;10.40;1.00
7564;DHT22;3823;53.586;10.040;2023-04-25T13:33:02;10.20;1.00
7564;DHT22;3823;53.586;10.040;2023-04-25T13:35:29;10.10;1.00
7564;DHT22;3823;53.586;10.040;2023-04-25T13:37:55;10.10;1.00
7564;DHT22;3823;53.586;10.040;2023-04-25T13:40:21;10.10;1.00
7564;DHT22;3823;53.586;10.040;2023-04-25T13:42:47;10.30;1.00
7564;DHT22;3823;53.586;10.040;2023-04-25T13:45:12;10.60;1.00
7564;DHT22;3823;53.586;10.040;2023-04-25T13:47:38;10.70;1.00
7564;DHT22;3823;53.586;10.040;2023-04-25T13:50:04;10.90;1.00
7564;DHT22;3823;53.586;10.040;2023-04-25T13:52:33;10.90;1.00
7564;DHT22;3823;53.586;10.040;2023-04-25T13:54:59;10.50;1.00
7564;DHT22;3823;53.586;10.040;2023-04-25T13:57:25;10.10;1.00
7564;DHT22;3823;53.586;10.040;2023-04-25T13:59:51;9.80;1.00
7564;DHT22;3823;53.586;10.040;2023-04-25T14:02:18;9.50;1.00
7564;DHT22;3823;53.586;10.040;2023-04-25T14:04:43;9.40;1.00
7564;DHT22;3823;53.586;10.040;2023-04-25T14:07:09;9.30;1.00
7564;DHT22;3823;53.586;10.040;2023-04-25T14:09:36;9.30;1.00
7564;DHT22;3823;53.586;10.040;2023-04-25T14:12:02;9.40;1.00
7564;DHT22;3823;53.586;10.040;2023-04-25T14:14:27;9.50;1.00
7564;DHT22;3823;53.586;10.040;2023-04-25T14:16:53;9.60;1.00
7564;DHT22;3823;53.586;10.040;2023-04-25T14:19:20;9.80;1.00
7564;DHT22;3823;53.586;10.040;2023-04-25T14:21:46;9.90;1.00
7564;DHT22;3823;53.586;10.040;2023-04-25T14:24:12;10.10;1.00
7564;DHT22;3823;53.586;10.040;2023-04-25T14:26:38;10.20;1.00
7564;DHT22;3823;53.586;10.040;2023-04-25T14:29:05;10.40;1.00
7564;DHT22;3823;53.586;10.040;2023-04-25T14:31:31;10.60;1.00
7564;DHT22;3823;53.586;10.040;2023-04-25T14:33:57;10.70;1.00
7564;DHT22;3823;53.586;10.040;2023-04-25T14:36:22;10.80;1.00
7564;DHT22;3823;53.586;10.040;2023-04-25T14:38:48;10.80;1.00
7564;DHT22;3823;53.586;10.040;2023-04-25T14:41:13;11.00;1.00
7564;DHT22;3823;53.586;10.040;2023-04-25T14:43:39;11.20;1.00
7564;DHT22;3823;53.586;10.040;2023-04-25T14:46:07;11.30;1.00
7564;DHT22;3823;53.586;10.040;2023-04-25T14:48:33;11.50;1.00
7564;DHT22;3823;53.586;10.040;2023-04-25T14:50:59;11.50;1.00
7564;DHT22;3823;53.586;10.040;2023-04-25T14:53:27;11.50;1.00
7564;DHT22;3823;53.586;10.040;2023-04-25T14:55:53;11.40;1.00
7564;DHT22;3823;53.586;10.040;2023-04-25T14:58:19;11.60;1.00
7564;DHT22;3823;53.586;10.040;2023-04-25T15:00:45;11.60;1.00
7564;DHT22;3823;53.586;10.040;2023-04-25T15:03:11;11.50;1.00
7564;DHT22;3823;53.586;10.040;2023-04-25T15:05:38;11.40;1.00
7564;DHT22;3823;53.586;10.040;2023-04-25T15:08:04;11.30;1.00
7564;DHT22;3823;53.586;10.040;2023-04-25T15:10:30;11.10;1.00
7564;DHT22;3823;53.586;10.040;2023-04-25T15:12:55;11.00;1.00
7564;DHT22;3823;53.586;10.040;2023-04-25T15:15:21;10.80;1.00
7564;DHT22;3823;53.586;10.040;2023-04-25T15:17:47;10.70;1.00
7564;DHT22;3823;53.586;10.040;2023-04-25T15:20:14;10.70;1.00
7564;DHT22;3823;53.586;10.040;2023-04-25T15:22:41;10.80;1.00
7564;DHT22;3823;53.586;10.040;2023-04-25T15:25:07;10.80;1.00
7564;DHT22;3823;53.586;10.040;2023-04-25T15:27:34;10.70;1.00
7564;DHT22;3823;53.586;10.040;2023-04-25T15:30:04;10.70;1.00
7564;DHT22;3823;53.586;10.040;2023-04-25T15:32:31;10.70;1.00
7564;DHT22;3823;53.586;10.040;2023-04-25T15:34:56;10.60;1.00
7564;DHT22;3823;53.586;10.040;2023-04-25T15:37:22;10.60;1.00
7564;DHT22;3823;53.586;10.040;2023-04-25T15:39:47;10.50;1.00
7564;DHT22;3823;53.586;10.040;2023-04-25T15:42:13;10.50;1.00
7564;DHT22;3823;53.586;10.040;2023-04-25T15:44:38;10.50;1.00
7564;DHT22;3823;53.586;10.040;2023-04-25T15:47:04;10.60;1.00
7564;DHT22;3823;53.586;10.040;2023-04-25T15:49:29;10.60;1.00
7564;DHT22;3823;53.586;10.040;2023-04-25T15:51:55;10.50;1.00
7564;DHT22;3823;53.586;10.040;2023-04-25T15:54:21;10.60;1.00
7564;DHT22;3823;53.586;10.040;2023-04-25T15:56:47;10.60;1.00
7564;DHT22;3823;53.586;10.040;2023-04-25T15:59:12;10.60;1.00
7564;DHT22;3823;53.586;10.040;2023-04-25T16:01:38;10.60;1.00
7564;DHT22;3823;53.586;10.040;2023-04-25T16:04:05;10.70;1.00
7564;DHT22;3823;53.586;10.040;2023-04-25T16:06:30;10.70;1.00
7564;DHT22;3823;53.586;10.040;2023-04-25T16:08:56;10.70;1.00
7564;DHT22;3823;53.586;10.040;2023-04-25T16:11:22;10.70;1.00
7564;DHT22;3823;53.586;10.040;2023-04-25T16:13:48;10.70;1.00
7564;DHT22;3823;53.586;10.040;2023-04-25T16:16:14;10.60;1.00
7564;DHT22;3823;53.586;10.040;2023-04-25T16:18:40;10.50;1.00
7564;DHT22;3823;53.586;10.040;2023-04-25T16:21:06;10.50;1.00
7564;DHT22;3823;53.586;10.040;2023-04-25T16:23:32;10.50;1.00
7564;DHT22;3823;53.586;10.040;2023-04-25T16:25:57;10.50;1.00
7564;DHT22;3823;53.586;10.040;2023-04-25T16:28:23;10.40;1.00
7564;DHT22;3823;53.586;10.040;2023-04-25T16:30:48;10.40;1.00
7564;DHT22;3823;53.586;10.040;2023-04-25T16:33:14;10.30;1.00
7564;DHT22;3823;53.586;10.040;2023-04-25T16:35:40;10.30;1.00
7564;DHT22;3823;53.586;10.040;2023-04-25T16:38:05;10.20;1.00
7564;DHT22;3823;53.586;10.040;2023-04-25T16:40:31;10.20;1.00
7564;DHT22;3823;53.586;10.040;2023-04-25T16:42:56;10.20;1.00
7564;DHT22;3823;53.586;10.040;2023-04-25T16:45:22;10.10;1.00
7564;DHT22;3823;53.586;10.040;2023-04-25T16:47:48;10.00;1.00
7564;DHT22;3823;53.586;10.040;2023-04-25T16:50:14;9.90;1.00
7564;DHT22;3823;53.586;10.040;2023-04-25T16:52:40;9.80;1.00
7564;DHT22;3823;53.586;10.040;2023-04-25T16:55:06;9.80;1.00
7564;DHT22;3823;53.586;10.040;2023-04-25T16:57:36;9.80;1.00
7564;DHT22;3823;53.586;10.040;2023-04-25T17:00:03;9.80;1.00
7564;DHT22;3823;53.586;10.040;2023-04-25T17:02:29;9.70;1.00
7564;DHT22;3823;53.586;10.040;2023-04-25T17:04:54;9.60;1.00
7564;DHT22;3823;53.586;10.040;2023-04-25T17:07:20;9.60;1.00
7564;DHT22;3823;53.586;10.040;2023-04-25T17:09:49;9.50;1.00
7564;DHT22;3823;53.586;10.040;2023-04-25T17:12:15;9.50;1.00
7564;DHT22;3823;53.586;10.040;2023-04-25T17:14:41;9.40;1.00
7564;DHT22;3823;53.586;10.040;2023-04-25T17:17:07;9.30;1.00
7564;DHT22;3823;53.586;10.040;2023-04-25T17:19:33;9.10;1.00
7564;DHT22;3823;53.586;10.040;2023-04-25T17:21:58;9.10;1.00
7564;DHT22;3823;53.586;10.040;2023-04-25T17:24:24;9.00;1.00
7564;DHT22;3823;53.586;10.040;2023-04-25T17:26:49;8.80;1.00
7564;DHT22;3823;53.586;10.040;2023-04-25T17:29:15;8.80;1.00
7564;DHT22;3823;53.586;10.040;2023-04-25T17:31:41;8.60;1.00
7564;DHT22;3823;53.586;10.040;2023-04-25T17:34:07;8.60;1.00
7564;DHT22;3823;53.586;10.040;2023-04-25T17:36:34;8.60;1.00
7564;DHT22;3823;53.586;10.040;2023-04-25T17:38:59;8.50;1.00
7564;DHT22;3823;53.586;10.040;2023-04-25T17:41:25;8.50;1.00
7564;DHT22;3823;53.586;10.040;2023-04-25T17:43:51;8.50;1.00
7564;DHT22;3823;53.586;10.040;2023-04-25T17:46:17;8.50;1.00
7564;DHT22;3823;53.586;10.040;2023-04-25T17:48:42;8.40;1.00
7564;DHT22;3823;53.586;10.040;2023-04-25T17:51:08;8.30;1.00
7564;DHT22;3823;53.586;10.040;2023-04-25T17:53:34;8.30;1.00
7564;DHT22;3823;53.586;10.040;2023-04-25T17:56:01;8.30;1.00
7564;DHT22;3823;53.586;10.040;2023-04-25T17:58:26;8.30;1.00
7564;DHT22;3823;53.586;10.040;2023-04-25T18:00:52;8.40;1.00
7564;DHT22;3823;53.586;10.040;2023-04-25T18:03:17;8.40;1.00
7564;DHT22;3823;53.586;10.040;2023-04-25T18:05:43;8.40;1.00
7564;DHT22;3823;53.586;10.040;2023-04-25T18:08:09;8.50;1.00
7564;DHT22;3823;53.586;10.040;2023-04-25T18:10:34;8.50;1.00
7564;DHT22;3823;53.586;10.040;2023-04-25T18:13:00;8.40;1.00
7564;DHT22;3823;53.586;10.040;2023-04-25T18:15:26;8.40;1.00
7564;DHT22;3823;53.586;10.040;2023-04-25T18:17:51;8.40;1.00
7564;DHT22;3823;53.586;10.040;2023-04-25T18:20:17;8.40;1.00
7564;DHT22;3823;53.586;10.040;2023-04-25T18:22:44;8.40;1.00
7564;DHT22;3823;53.586;10.040;2023-04-25T18:25:10;8.40;1.00
7564;DHT22;3823;53.586;10.040;2023-04-25T18:27:37;8.40;1.00
7564;DHT22;3823;53.586;10.040;2023-04-25T18:30:05;8.40;1.00
7564;DHT22;3823;53.586;10.040;2023-04-25T18:32:31;8.30;1.00
7564;DHT22;3823;53.586;10.040;2023-04-25T18:34:57;8.30;1.00
7564;DHT22;3823;53.586;10.040;2023-04-25T18:37:22;8.20;1.00
7564;DHT22;3823;53.586;10.040;2023-04-25T18:39:48;8.20;1.00
7564;DHT22;3823;53.586;10.040;2023-04-25T18:42:13;8.20;1.00
7564;DHT22;3823;53.586;10.040;2023-04-25T18:44:39;8.10;1.00
7564;DHT22;3823;53.586;10.040;2023-04-25T18:47:08;8.00;1.00
7564;DHT22;3823;53.586;10.040;2023-04-25T18:49:35;8.10;1.00
7564;DHT22;3823;53.586;10.040;2023-04-25T18:52:02;8.00;1.00
7564;DHT22;3823;53.586;10.040;2023-04-25T18:54:27;8.00;1.00
7564;DHT22;3823;53.586;10.040;2023-04-25T18:56:53;7.90;1.00
7564;DHT22;3823;53.586;10.040;2023-04-25T18:59:21;8.00;1.00
7564;DHT22;3823;53.586;10.040;2023-04-25T19:01:47;7.90;1.00
7564;DHT22;3823;53.586;10.040;2023-04-25T19:04:14;7.90;1.00
7564;DHT22;3823;53.586;10.040;2023-04-25T19:06:39;7.80;1.00
7564;DHT22;3823;53.586;10.040;2023-04-25T19:09:05;7.70;1.00
7564;DHT22;3823;53.586;10.040;2023-04-25T19:11:32;7.70;1.00
7564;DHT22;3823;53.586;10.040;2023-04-25T19:13:57;7.80;1.00
7564;DHT22;3823;53.586;10.040;2023-04-25T19:16:23;7.70;1.00
7564;DHT22;3823;53.586;10.040;2023-04-25T19:18:53;7.70;1.00
7564;DHT22;3823;53.586;10.040;2023-04-25T19:21:19;7.60;1.00
7564;DHT22;3823;53.586;10.040;2023-04-25T19:23:45;7.60;1.00
7564;DHT22;3823;53.586;10.040;2023-04-25T19:26:11;7.60;1.00
7564;DHT22;3823;53.586;10.040;2023-04-25T19:28:36;7.70;1.00
7564;DHT22;3823;53.586;10.040;2023-04-25T19:31:03;7.60;1.00
7564;DHT22;3823;53.586;10.040;2023-04-25T19:33:29;7.60;1.00
7564;DHT22;3823;53.586;10.040;2023-04-25T19:35:54;7.60;1.00
7564;DHT22;3823;53.586;10.040;2023-04-25T19:38:20;7.70;1.00
7564;DHT22;3823;53.586;10.040;2023-04-25T19:40:45;7.60;1.00
7564;DHT22;3823;53.586;10.040;2023-04-25T19:43:11;7.60;1.00
7564;DHT22;3823;53.586;10.040;2023-04-25T19:45:36;7.70;1.00
7564;DHT22;3823;53.586;10.040;2023-04-25T19:48:02;7.50;1.00
7564;DHT22;3823;53.586;10.040;2023-04-25T19:50:29;7.60;1.00
7564;DHT22;3823;53.586;10.040;2023-04-25T19:52:55;7.60;1.00
7564;DHT22;3823;53.586;10.040;2023-04-25T19:55:21;7.70;1.00
7564;DHT22;3823;53.586;10.040;2023-04-25T19:57:47;7.60;1.00
7564;DHT22;3823;53.586;10.040;2023-04-25T20:00:15;7.60;1.00
7564;DHT22;3823;53.586;10.040;2023-04-25T20:02:42;7.60;1.00
7564;DHT22;3823;53.586;10.040;2023-04-25T20:05:10;7.60;1.00
7564;DHT22;3823;53.586;10.040;2023-04-25T20:07:39;7.60;1.00
7564;DHT22;3823;53.586;10.040;2023-04-25T20:10:06;7.50;1.00
7564;DHT22;3823;53.586;10.040;2023-04-25T20:12:34;7.50;1.00
7564;DHT22;3823;53.586;10.040;2023-04-25T20:15:02;7.40;1.00
7564;DHT22;3823;53.586;10.040;2023-04-25T20:17:28;7.50;1.00
7564;DHT22;3823;53.586;10.040;2023-04-25T20:19:53;7.50;1.00
7564;DHT22;3823;53.586;10.040;2023-04-25T20:22:19;7.40;1.00